Time;durP1;ratioP1;P1;durP2;ratioP2;P2;SDS_P1;SDS_P2;PMS_P1;PMS_P2;Temp;Humidity;BMP_temperature;BMP_pressure;BME280_temperature;BME280_humidity;BME280_pressure;Samples;Min_cycle;Max_cycle;Signal;HPM_P1;HPM_P2
2021/03/01 00:00:12;;;;;;;25.00;15.83;;;6.00;99.90;;;;;;5066859;28;20228;-64
2021/03/01 00:02:38;;;;;;;25.02;15.77;;;5.90;99.90;;;;;;5045501;28;20439;-64
2021/03/01 00:05:04;;;;;;;25.53;14.63;;;5.90;99.90;;;;;;5068653;28;20656;-64
2021/03/01 00:07:30;;;;;;;24.25;15.30;;;5.90;99.90;;;;;;5056911;28;20193;-64
2021/03/01 00:09:56;;;;;;;26.08;15.85;;;5.80;99.90;;;;;;5059851;28;20185;-64
2021/03/01 00:12:21;;;;;;;24.40;15.50;;;5.80;99.90;;;;;;5065712;28;20182;-65
2021/03/01 00:14:47;;;;;;;27.90;14.63;;;5.80;99.90;;;;;;5050182;28;20331;-64
2021/03/01 00:17:13;;;;;;;26.77;16.00;;;5.80;99.90;;;;;;5067322;28;20282;-64
2021/03/01 00:19:38;;;;;;;24.37;14.90;;;5.70;99.90;;;;;;5060863;28;20189;-65
2021/03/01 00:22:04;;;;;;;28.33;15.33;;;5.80;99.90;;;;;;5061571;28;20284;-64
2021/03/01 00:24:29;;;;;;;26.40;15.10;;;5.80;99.90;;;;;;5067512;28;20576;-64
2021/03/01 00:26:55;;;;;;;25.47;15.93;;;5.80;99.90;;;;;;5065007;28;20193;-64
2021/03/01 00:29:20;;;;;;;24.30;14.47;;;5.70;99.90;;;;;;5068708;28;20193;-64
2021/03/01 00:31:46;;;;;;;21.40;13.80;;;5.70;99.90;;;;;;5069655;28;20194;-64
2021/03/01 00:34:11;;;;;;;24.00;14.17;;;5.70;99.90;;;;;;5063336;28;20209;-65
2021/03/01 00:36:37;;;;;;;22.90;14.00;;;5.70;99.90;;;;;;5038788;28;20197;-65
2021/03/01 00:39:03;;;;;;;21.60;14.30;;;5.70;99.90;;;;;;5050451;28;20233;-63
2021/03/01 00:41:29;;;;;;;18.65;11.90;;;5.70;99.90;;;;;;5064311;28;20185;-64
2021/03/01 00:43:54;;;;;;;22.53;13.50;;;5.70;99.90;;;;;;5043408;28;20192;-65
2021/03/01 00:46:20;;;;;;;19.60;12.43;;;5.70;99.90;;;;;;5061365;28;20948;-64
2021/03/01 00:48:45;;;;;;;18.60;12.20;;;5.60;99.90;;;;;;5057861;28;20192;-65
2021/03/01 00:51:11;;;;;;;22.10;12.80;;;5.70;99.90;;;;;;5054120;28;20216;-65
2021/03/01 00:53:36;;;;;;;18.80;12.17;;;5.60;99.90;;;;;;5068063;28;20216;-65
2021/03/01 00:56:02;;;;;;;21.03;13.07;;;5.60;99.90;;;;;;5067755;28;20184;-64
2021/03/01 00:58:28;;;;;;;21.20;12.60;;;5.60;99.90;;;;;;5060686;28;20238;-65
2021/03/01 01:00:53;;;;;;;19.03;11.63;;;5.60;99.90;;;;;;5054700;28;20197;-65
2021/03/01 01:03:19;;;;;;;20.30;12.20;;;5.60;99.90;;;;;;5062709;28;20259;-66
2021/03/01 01:05:46;;;;;;;17.42;11.30;;;5.60;99.90;;;;;;5059214;28;20657;-65
2021/03/01 01:08:14;;;;;;;17.20;11.00;;;5.50;99.90;;;;;;5061767;28;20189;-65
2021/03/01 01:10:40;;;;;;;17.90;10.95;;;5.50;99.90;;;;;;5064146;28;20204;-65
2021/03/01 01:13:06;;;;;;;18.47;10.73;;;5.60;99.90;;;;;;5068250;28;20185;-66
2021/03/01 01:15:33;;;;;;;16.75;10.48;;;5.60;99.90;;;;;;5066062;28;20219;-65
2021/03/01 01:17:59;;;;;;;17.35;11.30;;;5.60;99.90;;;;;;5068439;28;20539;-65
2021/03/01 01:20:25;;;;;;;18.55;10.38;;;5.60;99.90;;;;;;5060104;28;20213;-66
2021/03/01 01:22:51;;;;;;;16.15;10.40;;;5.60;99.90;;;;;;5061486;28;20182;-64
2021/03/01 01:25:17;;;;;;;16.00;9.80;;;5.60;99.90;;;;;;5045437;28;20186;-64
2021/03/01 01:27:43;;;;;;;17.85;10.73;;;5.50;99.90;;;;;;5059135;28;20185;-64
2021/03/01 01:30:12;;;;;;;17.33;10.37;;;5.60;99.90;;;;;;5039219;28;20189;-65
2021/03/01 01:32:37;;;;;;;17.00;11.20;;;5.60;99.90;;;;;;5048654;28;20668;-65
2021/03/01 01:35:09;;;;;;;16.80;10.10;;;5.60;99.90;;;;;;5046007;28;20236;-65
2021/03/01 01:37:34;;;;;;;14.23;9.13;;;5.50;99.90;;;;;;5069825;28;20319;-64
2021/03/01 01:40:00;;;;;;;13.87;9.40;;;5.50;99.90;;;;;;5068344;28;20196;-64
2021/03/01 01:42:26;;;;;;;15.45;10.43;;;5.50;99.90;;;;;;5066626;28;20181;-65
2021/03/01 01:44:52;;;;;;;14.83;9.60;;;5.50;99.90;;;;;;5056059;28;20662;-64
2021/03/01 01:47:17;;;;;;;16.90;9.93;;;5.50;99.90;;;;;;5067941;28;21027;-64
2021/03/01 01:49:43;;;;;;;15.43;10.00;;;5.40;99.90;;;;;;5063035;28;20518;-64
2021/03/01 01:52:08;;;;;;;16.07;10.30;;;5.40;99.90;;;;;;5067637;28;20686;-64
2021/03/01 01:54:35;;;;;;;14.83;9.47;;;5.40;99.90;;;;;;5063345;28;21126;-65
2021/03/01 01:57:01;;;;;;;14.73;9.32;;;5.40;99.90;;;;;;5048667;28;20185;-65
2021/03/01 01:59:27;;;;;;;13.00;8.88;;;5.40;99.90;;;;;;5065219;28;20205;-64
2021/03/01 02:01:54;;;;;;;14.07;9.47;;;5.40;99.90;;;;;;5060376;28;20293;-65
2021/03/01 02:04:27;;;;;;;14.65;10.02;;;5.30;99.90;;;;;;5062784;28;20193;-64
2021/03/01 02:07:07;;;;;;;13.95;9.27;;;5.30;99.90;;;;;;5062811;28;20193;-64
2021/03/01 02:09:57;;;;;;;15.65;9.50;;;5.20;99.90;;;;;;5063064;28;20186;-64
2021/03/01 02:12:50;;;;;;;11.63;8.52;;;5.20;99.90;;;;;;5056673;28;20670;-64
2021/03/01 02:15:42;;;;;;;16.67;10.20;;;5.20;99.90;;;;;;5059619;28;20263;-64
2021/03/01 02:18:08;;;;;;;13.23;9.02;;;5.10;99.90;;;;;;5069252;28;20173;-65
2021/03/01 02:20:33;;;;;;;12.57;8.90;;;5.10;99.90;;;;;;5057305;28;20397;-65
2021/03/01 02:22:59;;;;;;;15.30;9.87;;;5.00;99.90;;;;;;5061045;28;20194;-65
2021/03/01 02:25:29;;;;;;;13.88;9.00;;;5.00;99.90;;;;;;5068320;28;20304;-65
2021/03/01 02:28:03;;;;;;;11.93;8.75;;;5.00;99.90;;;;;;5038846;28;20193;-65
2021/03/01 02:30:30;;;;;;;13.88;9.15;;;5.00;99.90;;;;;;5072026;28;20186;-65
2021/03/01 02:33:01;;;;;;;13.23;9.27;;;5.00;99.90;;;;;;5069964;28;20563;-65
2021/03/01 02:35:31;;;;;;;14.02;8.68;;;5.00;99.90;;;;;;5052089;28;20552;-65
2021/03/01 02:37:59;;;;;;;15.15;9.20;;;4.90;99.90;;;;;;5060418;28;20224;-65
2021/03/01 02:40:25;;;;;;;16.70;9.88;;;4.90;99.90;;;;;;5072368;28;20193;-64
2021/03/01 02:42:53;;;;;;;14.63;9.57;;;4.90;99.90;;;;;;5043139;28;20220;-64
2021/03/01 02:45:18;;;;;;;15.80;8.80;;;4.90;99.90;;;;;;5052184;28;20181;-64
2021/03/01 02:47:45;;;;;;;11.73;8.90;;;4.90;99.90;;;;;;5053682;28;20295;-64
2021/03/01 02:50:12;;;;;;;16.05;10.02;;;4.90;99.90;;;;;;5061599;28;20201;-65
2021/03/01 02:52:40;;;;;;;14.45;8.82;;;4.90;99.90;;;;;;5063421;28;20200;-64
2021/03/01 02:55:07;;;;;;;13.20;7.72;;;4.90;99.90;;;;;;5071623;28;20209;-65
2021/03/01 02:57:34;;;;;;;15.30;8.50;;;4.80;99.90;;;;;;5061953;28;20178;-65
2021/03/01 03:00:03;;;;;;;14.10;9.65;;;4.80;99.90;;;;;;5064103;28;20698;-65
2021/03/01 03:02:30;;;;;;;11.43;8.40;;;4.70;99.90;;;;;;5070319;28;20532;-65
2021/03/01 03:04:57;;;;;;;13.75;9.00;;;4.80;99.90;;;;;;5069032;28;20184;-64
2021/03/01 03:07:24;;;;;;;12.68;7.88;;;4.80;99.90;;;;;;5060507;28;20185;-64
2021/03/01 03:09:49;;;;;;;13.02;8.98;;;4.70;99.90;;;;;;5062549;28;20292;-64
2021/03/01 03:12:17;;;;;;;13.77;8.43;;;4.70;99.90;;;;;;5040179;28;20334;-63
2021/03/01 03:14:44;;;;;;;13.73;8.57;;;4.70;99.90;;;;;;5058781;28;20213;-64
2021/03/01 03:17:11;;;;;;;13.63;8.30;;;4.70;99.90;;;;;;5068084;28;20170;-65
2021/03/01 03:19:39;;;;;;;11.52;7.70;;;4.70;99.90;;;;;;5069252;28;20189;-62
2021/03/01 03:22:04;;;;;;;13.07;7.55;;;4.70;99.90;;;;;;5064940;28;20201;-64
2021/03/01 03:24:30;;;;;;;12.13;7.90;;;4.70;99.90;;;;;;5062297;28;20193;-64
2021/03/01 03:26:56;;;;;;;12.20;8.23;;;4.70;99.90;;;;;;5063737;28;20222;-64
2021/03/01 03:29:21;;;;;;;13.13;8.23;;;4.60;99.90;;;;;;5067496;28;20185;-63
2021/03/01 03:31:47;;;;;;;13.10;8.50;;;4.60;99.90;;;;;;5068228;28;20484;-63
2021/03/01 03:34:13;;;;;;;13.77;8.27;;;4.60;99.90;;;;;;5055116;28;20209;-64
2021/03/01 03:36:48;;;;;;;12.00;8.10;;;4.60;99.90;;;;;;5060796;28;20208;-64
2021/03/01 03:39:17;;;;;;;14.15;8.80;;;4.60;99.90;;;;;;5057006;28;20475;-64
2021/03/01 03:41:45;;;;;;;11.40;7.50;;;4.60;99.90;;;;;;5070337;28;20882;-64
2021/03/01 03:44:14;;;;;;;14.60;8.85;;;4.60;99.90;;;;;;5067867;28;20200;-64
2021/03/01 03:46:41;;;;;;;12.73;8.68;;;4.60;99.90;;;;;;5070757;28;20204;-64
2021/03/01 03:49:10;;;;;;;13.40;8.95;;;4.50;99.90;;;;;;5057455;28;20644;-64
2021/03/01 03:51:37;;;;;;;13.48;8.48;;;4.50;99.90;;;;;;5042610;28;20190;-64
2021/03/01 03:54:14;;;;;;;11.63;7.97;;;4.40;99.90;;;;;;5061737;28;20761;-64
2021/03/01 03:56:45;;;;;;;13.65;8.40;;;4.50;99.90;;;;;;5057766;28;20173;-64
2021/03/01 03:59:12;;;;;;;14.35;9.48;;;4.50;99.90;;;;;;5077429;28;20177;-64
2021/03/01 04:01:39;;;;;;;12.57;8.60;;;4.50;99.90;;;;;;5069417;28;20192;-64
2021/03/01 04:04:07;;;;;;;13.65;8.18;;;4.50;99.90;;;;;;5068020;28;20359;-64
2021/03/01 04:06:36;;;;;;;13.55;8.88;;;4.40;99.90;;;;;;5063909;28;20200;-64
2021/03/01 04:09:06;;;;;;;15.05;9.35;;;4.40;99.90;;;;;;5065506;28;20664;-64
2021/03/01 04:11:32;;;;;;;11.48;7.82;;;4.40;99.90;;;;;;5065825;28;20193;-64
2021/03/01 04:13:59;;;;;;;12.73;7.63;;;4.50;99.90;;;;;;5066494;28;20263;-64
2021/03/01 04:16:28;;;;;;;11.50;8.05;;;4.50;99.90;;;;;;5061190;28;20276;-65
2021/03/01 04:18:58;;;;;;;11.82;8.00;;;4.50;99.90;;;;;;5059147;28;20185;-63
2021/03/01 04:21:27;;;;;;;11.88;7.63;;;4.50;99.90;;;;;;5068600;28;20583;-64
2021/03/01 04:23:53;;;;;;;12.13;7.72;;;4.50;99.90;;;;;;5064418;28;20326;-65
2021/03/01 04:26:19;;;;;;;10.68;7.20;;;4.50;99.90;;;;;;5068960;28;20276;-64
2021/03/01 04:28:47;;;;;;;10.50;7.53;;;4.50;99.90;;;;;;5069949;28;20260;-64
2021/03/01 04:31:14;;;;;;;12.02;8.15;;;4.50;99.90;;;;;;5064150;28;20439;-63
2021/03/01 04:33:42;;;;;;;15.02;8.57;;;4.50;99.90;;;;;;5057641;28;20277;-64
2021/03/01 04:36:08;;;;;;;11.52;8.15;;;4.50;99.90;;;;;;5067173;28;20670;-64
2021/03/01 04:38:35;;;;;;;15.70;8.32;;;4.50;99.90;;;;;;5061139;28;20253;-64
2021/03/01 04:41:02;;;;;;;13.45;8.43;;;4.50;99.90;;;;;;5056686;28;20265;-64
2021/03/01 04:43:29;;;;;;;11.95;7.97;;;4.40;99.90;;;;;;5044810;28;20691;-64
2021/03/01 04:45:55;;;;;;;11.15;7.13;;;4.40;99.90;;;;;;5051263;28;20220;-65
2021/03/01 04:48:25;;;;;;;10.38;7.40;;;4.40;99.90;;;;;;5063622;28;20212;-64
2021/03/01 04:50:52;;;;;;;10.23;7.60;;;4.40;99.90;;;;;;5068305;28;20181;-65
2021/03/01 04:53:19;;;;;;;14.48;7.50;;;4.40;99.90;;;;;;5067520;28;20579;-65
2021/03/01 04:55:45;;;;;;;9.57;7.10;;;4.40;99.90;;;;;;5067695;28;20849;-65
2021/03/01 04:58:12;;;;;;;11.15;7.47;;;4.40;99.90;;;;;;5064884;28;20550;-65
2021/03/01 05:00:38;;;;;;;10.40;7.28;;;4.40;99.90;;;;;;5063734;28;20178;-64
2021/03/01 05:03:06;;;;;;;10.45;6.97;;;4.40;99.90;;;;;;5058766;28;20197;-64
2021/03/01 05:05:33;;;;;;;8.88;6.80;;;4.30;99.90;;;;;;5062430;28;20232;-64
2021/03/01 05:08:03;;;;;;;9.95;6.90;;;4.40;99.90;;;;;;5056766;28;20193;-64
2021/03/01 05:10:31;;;;;;;10.23;7.35;;;4.40;99.90;;;;;;5049124;28;20224;-65
2021/03/01 05:12:56;;;;;;;9.20;6.63;;;4.40;99.90;;;;;;5054368;28;20640;-65
2021/03/01 05:15:22;;;;;;;12.10;8.27;;;4.40;99.90;;;;;;5031352;28;20236;-65
2021/03/01 05:17:47;;;;;;;11.83;7.70;;;4.40;99.90;;;;;;5047973;28;20192;-65
2021/03/01 05:20:13;;;;;;;8.53;6.57;;;4.40;99.90;;;;;;5028194;28;20188;-65
2021/03/01 05:22:39;;;;;;;9.13;7.03;;;4.30;99.90;;;;;;5033066;28;20688;-65
2021/03/01 05:25:06;;;;;;;10.48;6.43;;;4.40;99.90;;;;;;5048375;28;20440;-65
2021/03/01 05:27:33;;;;;;;11.32;6.95;;;4.40;99.90;;;;;;5047377;28;20197;-64
2021/03/01 05:29:59;;;;;;;9.43;6.60;;;4.40;99.90;;;;;;5047326;28;20688;-64
2021/03/01 05:32:25;;;;;;;11.77;6.45;;;4.50;99.90;;;;;;5049039;28;20181;-64
2021/03/01 05:34:51;;;;;;;11.20;7.37;;;4.40;99.90;;;;;;5044608;28;20240;-64
2021/03/01 05:37:17;;;;;;;11.15;7.43;;;4.40;99.90;;;;;;5041485;28;20233;-65
2021/03/01 05:39:42;;;;;;;11.73;7.30;;;4.40;99.90;;;;;;5042431;28;20193;-65
2021/03/01 05:42:12;;;;;;;11.13;7.03;;;4.40;99.90;;;;;;5057448;28;20185;-65
2021/03/01 05:44:40;;;;;;;9.38;6.75;;;4.40;99.90;;;;;;5068081;28;20188;-65
2021/03/01 05:47:08;;;;;;;9.88;6.72;;;4.40;99.90;;;;;;5059628;28;20212;-65
2021/03/01 05:49:35;;;;;;;11.38;7.03;;;4.50;99.90;;;;;;5069044;28;20189;-65
2021/03/01 05:52:01;;;;;;;10.52;6.95;;;4.50;99.90;;;;;;5069034;28;20272;-65
2021/03/01 05:54:33;;;;;;;10.00;6.60;;;4.50;99.90;;;;;;5061498;28;20339;-65
2021/03/01 05:56:59;;;;;;;8.80;6.45;;;4.50;99.90;;;;;;5059880;28;20636;-65
2021/03/01 05:59:25;;;;;;;9.13;5.95;;;4.50;99.90;;;;;;5063545;28;20178;-66
2021/03/01 06:01:51;;;;;;;9.10;5.50;;;4.50;98.40;;;;;;5049508;28;20178;-66
2021/03/01 06:04:17;;;;;;;9.30;6.90;;;4.50;98.50;;;;;;5066291;28;20185;-64
2021/03/01 06:06:43;;;;;;;9.00;6.87;;;4.40;98.70;;;;;;5062513;28;20435;-65
2021/03/01 06:09:09;;;;;;;9.97;6.40;;;4.30;99.90;;;;;;5065757;28;20450;-65
2021/03/01 06:11:34;;;;;;;9.23;6.90;;;4.20;99.90;;;;;;5064699;28;20190;-65
2021/03/01 06:14:04;;;;;;;10.33;6.70;;;4.30;99.90;;;;;;5065883;28;20906;-65
2021/03/01 06:16:30;;;;;;;9.18;6.68;;;4.30;99.90;;;;;;5067030;28;20260;-65
2021/03/01 06:18:56;;;;;;;11.23;7.17;;;4.30;99.90;;;;;;5051248;28;20627;-65
2021/03/01 06:21:24;;;;;;;9.90;6.90;;;4.40;99.90;;;;;;5048193;28;20569;-64
2021/03/01 06:23:51;;;;;;;10.10;7.00;;;4.40;99.90;;;;;;5055053;28;20219;-65
2021/03/01 06:26:31;;;;;;;9.45;6.50;;;4.30;99.90;;;;;;5067675;28;20193;-65
2021/03/01 06:29:02;;;;;;;12.40;7.10;;;4.30;99.90;;;;;;5058895;28;20678;-64
2021/03/01 06:31:42;;;;;;;10.25;6.63;;;4.30;99.90;;;;;;5068393;28;20185;-65
2021/03/01 06:34:26;;;;;;;10.85;7.03;;;4.40;99.90;;;;;;5068020;28;20201;-66
2021/03/01 06:37:13;;;;;;;9.68;6.85;;;4.30;99.90;;;;;;5048727;28;20182;-65
2021/03/01 06:39:40;;;;;;;10.32;7.40;;;4.30;99.90;;;;;;5056437;28;20185;-65
2021/03/01 06:42:18;;;;;;;11.27;7.20;;;4.40;99.90;;;;;;5068575;28;20181;-65
2021/03/01 06:44:45;;;;;;;9.73;7.05;;;4.40;99.90;;;;;;5064617;28;20721;-65
2021/03/01 06:47:11;;;;;;;11.40;7.22;;;4.40;99.90;;;;;;5068094;28;20189;-65
2021/03/01 06:49:38;;;;;;;9.40;6.80;;;4.40;99.90;;;;;;5068311;28;20551;-66
2021/03/01 06:52:04;;;;;;;11.30;7.32;;;4.40;96.90;;;;;;5050134;28;20561;-66
2021/03/01 06:54:30;;;;;;;8.93;6.63;;;4.50;96.90;;;;;;5063197;28;20209;-65
2021/03/01 06:56:55;;;;;;;10.40;6.60;;;4.50;96.30;;;;;;5071953;28;20185;-65
2021/03/01 06:59:21;;;;;;;11.43;8.67;;;4.50;95.20;;;;;;5064053;28;20183;-65
2021/03/01 07:02:00;;;;;;;8.90;6.37;;;4.50;93.90;;;;;;5061918;28;20192;-66
2021/03/01 07:04:28;;;;;;;11.57;9.18;;;4.40;94.70;;;;;;5072036;28;20207;-66
2021/03/01 07:06:55;;;;;;;9.85;6.70;;;4.40;97.20;;;;;;5071719;28;20211;-65
2021/03/01 07:09:24;;;;;;;11.65;7.40;;;4.40;99.90;;;;;;5063765;28;20204;-65
2021/03/01 07:11:51;;;;;;;11.45;7.40;;;4.50;97.90;;;;;;5067159;28;20178;-65
2021/03/01 07:14:19;;;;;;;10.55;6.85;;;4.50;96.20;;;;;;5071431;28;20216;-66
2021/03/01 07:16:50;;;;;;;13.93;7.47;;;4.40;91.80;;;;;;5057563;28;20186;-66
2021/03/01 07:19:21;;;;;;;13.63;7.10;;;4.40;84.60;;;;;;5058622;28;20550;-67
2021/03/01 07:21:50;;;;;;;11.88;6.90;;;4.40;83.70;;;;;;5068512;28;20202;-65
2021/03/01 07:24:18;;;;;;;13.45;7.90;;;4.30;87.60;;;;;;5058473;28;20185;-66
2021/03/01 07:26:44;;;;;;;11.40;8.30;;;4.30;93.50;;;;;;5067867;28;20189;-65
2021/03/01 07:29:10;;;;;;;12.75;8.07;;;4.30;99.70;;;;;;5060854;28;20177;-66
2021/03/01 07:31:37;;;;;;;9.90;7.00;;;4.30;99.90;;;;;;5071108;28;20185;-67
2021/03/01 07:34:07;;;;;;;10.80;7.70;;;4.40;99.90;;;;;;5070716;28;20258;-67
2021/03/01 07:36:34;;;;;;;9.38;6.40;;;4.50;99.90;;;;;;5054675;28;20190;-66
2021/03/01 07:39:02;;;;;;;12.18;7.20;;;4.50;99.20;;;;;;5051079;28;20232;-66
2021/03/01 07:41:28;;;;;;;11.32;7.05;;;4.50;96.60;;;;;;5050707;28;20228;-67
2021/03/01 07:43:55;;;;;;;11.50;7.53;;;4.60;96.20;;;;;;5056501;28;20288;-67
2021/03/01 07:46:40;;;;;;;11.05;7.63;;;4.60;95.80;;;;;;5054384;28;20271;-68
2021/03/01 07:49:05;;;;;;;10.73;7.15;;;4.60;94.40;;;;;;5066541;28;20183;-67
2021/03/01 07:51:48;;;;;;;14.00;7.97;;;4.70;93.80;;;;;;5057039;28;20189;-68
2021/03/01 07:54:18;;;;;;;11.50;7.05;;;4.60;88.80;;;;;;5069310;28;20277;-67
2021/03/01 07:56:46;;;;;;;14.63;9.00;;;4.60;85.80;;;;;;5066140;28;20177;-68
2021/03/01 07:59:12;;;;;;;12.55;8.40;;;4.70;90.00;;;;;;5064196;28;20190;-68
2021/03/01 08:01:39;;;;;;;11.77;7.82;;;4.70;84.80;;;;;;5068408;28;20170;-68
2021/03/01 08:04:05;;;;;;;11.13;7.57;;;4.70;78.40;;;;;;5058982;28;20192;-68
2021/03/01 08:07:00;;;;;;;10.38;7.70;;;4.70;77.00;;;;;;5053682;28;20216;-69
2021/03/01 08:09:52;;;;;;;10.55;7.22;;;4.80;75.40;;;;;;5044304;28;20302;-66
2021/03/01 08:12:32;;;;;;;9.18;7.15;;;4.70;70.30;;;;;;5050091;28;20264;-65
2021/03/01 08:15:07;;;;;;;13.10;7.47;;;4.70;72.50;;;;;;5055748;28;20208;-64
2021/03/01 08:17:38;;;;;;;11.02;6.97;;;4.70;74.20;;;;;;5049414;28;20196;-67
2021/03/01 08:20:12;;;;;;;11.25;6.90;;;4.70;73.90;;;;;;5068304;28;20584;-64
2021/03/01 08:23:10;;;;;;;9.95;7.05;;;4.70;68.40;;;;;;5068505;28;20173;-64
2021/03/01 08:28:21;;;;;;;8.98;6.57;;;4.70;71.60;;;;;;5061541;28;20196;-66
2021/03/01 08:30:55;;;;;;;9.13;7.10;;;4.70;73.70;;;;;;5067694;28;20331;-64
2021/03/01 08:33:25;;;;;;;10.75;7.70;;;4.80;63.70;;;;;;5057273;28;20231;-64
2021/03/01 08:36:13;;;;;;;10.20;7.95;;;4.80;67.60;;;;;;5057698;28;20202;-65
2021/03/01 08:38:46;;;;;;;10.05;6.70;;;4.90;62.90;;;;;;5051788;28;20268;-65
2021/03/01 08:41:19;;;;;;;9.77;6.88;;;4.90;62.20;;;;;;5054136;28;20547;-65
2021/03/01 08:43:48;;;;;;;9.05;6.13;;;4.80;58.50;;;;;;5058148;28;20265;-65
2021/03/01 08:46:18;;;;;;;11.07;7.30;;;4.70;60.00;;;;;;5050839;28;20192;-65
2021/03/01 08:48:49;;;;;;;10.02;6.88;;;4.80;62.80;;;;;;5048939;28;20244;-65
2021/03/01 08:51:16;;;;;;;9.35;7.00;;;4.80;57.60;;;;;;5052687;28;20652;-65
2021/03/01 08:53:42;;;;;;;10.50;6.75;;;4.90;61.90;;;;;;5068541;28;20204;-66
2021/03/01 08:56:24;;;;;;;9.60;7.07;;;4.90;61.10;;;;;;5065235;28;20594;-65
2021/03/01 08:58:49;;;;;;;10.27;7.68;;;4.90;54.60;;;;;;5060102;28;20886;-65
2021/03/01 09:01:15;;;;;;;10.03;7.33;;;4.90;54.00;;;;;;5068128;28;20268;-64
2021/03/01 09:03:42;;;;;;;9.45;6.35;;;4.90;55.50;;;;;;5053062;28;20646;-65
2021/03/01 09:06:12;;;;;;;9.68;6.28;;;5.00;51.30;;;;;;5049745;28;20212;-66
2021/03/01 09:08:40;;;;;;;9.60;6.53;;;5.10;47.90;;;;;;5055363;28;20178;-66
2021/03/01 09:11:13;;;;;;;11.85;8.05;;;5.10;41.70;;;;;;5060171;28;20192;-65
2021/03/01 09:13:39;;;;;;;9.85;7.60;;;5.10;40.90;;;;;;5063147;28;20178;-67
2021/03/01 09:16:14;;;;;;;10.43;7.55;;;5.10;41.00;;;;;;5050445;28;20517;-67
2021/03/01 09:18:41;;;;;;;9.45;7.10;;;5.10;43.60;;;;;;5051781;28;20186;-65
2021/03/01 09:21:08;;;;;;;11.30;7.53;;;5.10;45.20;;;;;;5053036;28;20182;-66
2021/03/01 09:23:42;;;;;;;10.35;7.50;;;5.10;45.90;;;;;;5059504;28;20185;-66
2021/03/01 09:26:21;;;;;;;8.80;6.47;;;5.20;48.50;;;;;;5049309;28;20225;-66
2021/03/01 09:28:47;;;;;;;10.30;7.38;;;5.20;48.80;;;;;;5055193;28;20212;-66
2021/03/01 09:31:15;;;;;;;9.18;6.72;;;5.30;47.40;;;;;;5053722;28;20899;-65
2021/03/01 09:33:42;;;;;;;11.65;7.75;;;5.30;44.90;;;;;;5059826;28;20204;-67
2021/03/01 09:36:08;;;;;;;9.90;7.65;;;5.30;37.30;;;;;;5061199;28;20264;-65
2021/03/01 09:38:35;;;;;;;11.95;8.32;;;5.20;34.60;;;;;;5068439;28;20259;-65
2021/03/01 09:41:06;;;;;;;14.20;6.97;;;5.20;40.40;;;;;;5067607;28;20189;-66
2021/03/01 09:43:33;;;;;;;10.88;7.45;;;5.20;40.10;;;;;;5068245;28;20181;-66
2021/03/01 09:46:00;;;;;;;10.07;7.10;;;5.20;38.80;;;;;;5067876;28;20178;-66
2021/03/01 09:48:32;;;;;;;10.77;7.53;;;5.40;34.50;;;;;;5066106;28;20288;-66
2021/03/01 09:50:58;;;;;;;11.20;7.78;;;5.40;20.60;;;;;;5055485;28;20186;-64
2021/03/01 09:53:26;;;;;;;11.95;7.22;;;5.50;15.60;;;;;;5068250;28;20186;-64
2021/03/01 09:55:55;;;;;;;10.40;7.70;;;5.70;13.20;;;;;;5053474;28;20206;-65
2021/03/01 09:58:29;;;;;;;12.52;7.43;;;5.60;13.20;;;;;;5068207;28;20208;-65
2021/03/01 10:01:10;;;;;;;9.23;7.32;;;5.70;8.30;;;;;;5064253;28;20186;-65
2021/03/01 10:03:44;;;;;;;9.80;7.28;;;5.70;3.90;;;;;;5067509;28;20216;-65
2021/03/01 10:06:11;;;;;;;11.30;7.93;;;5.60;9.00;;;;;;5068011;28;20189;-65
2021/03/01 10:08:38;;;;;;;10.02;7.25;;;5.70;10.90;;;;;;5067751;28;20976;-65
2021/03/01 10:11:18;;;;;;;10.02;7.60;;;5.90;5.30;;;;;;5068530;28;20643;-66
2021/03/01 10:13:43;;;;;;;11.35;7.72;;;5.80;1.10;;;;;;5065470;28;20267;-65
2021/03/01 10:16:10;;;;;;;10.93;7.97;;;5.90;6.10;;;;;;5062932;28;20277;-64
2021/03/01 10:18:36;;;;;;;15.10;7.60;;;5.90;1.00;;;;;;5061118;28;20227;-65
2021/03/01 10:21:06;;;;;;;8.67;7.07;;;5.90;1.00;;;;;;5068076;28;20571;-66
2021/03/01 10:23:40;;;;;;;10.10;7.75;;;6.10;1.00;;;;;;5069016;28;20207;-66
2021/03/01 10:26:17;;;;;;;11.13;7.80;;;6.00;1.00;;;;;;5066479;28;20198;-66
2021/03/01 10:28:59;;;;;;;13.02;9.20;;;6.00;1.00;;;;;;5067124;28;20220;-65
2021/03/01 10:31:38;;;;;;;11.57;8.40;;;6.00;1.00;;;;;;5068354;28;20260;-65
2021/03/01 10:34:07;;;;;;;10.73;8.13;;;6.10;1.00;;;;;;5072116;28;20228;-65
2021/03/01 10:36:51;;;;;;;11.15;8.60;;;6.30;1.00;;;;;;5067494;28;20235;-65
2021/03/01 10:39:36;;;;;;;12.40;9.20;;;6.20;1.00;;;;;;5063569;28;20245;-65
2021/03/01 10:42:14;;;;;;;12.75;8.80;;;6.20;1.00;;;;;;5071659;28;20268;-64
2021/03/01 10:44:41;;;;;;;11.98;9.27;;;6.30;1.00;;;;;;5057825;28;20952;-65
2021/03/01 10:47:16;;;;;;;12.30;9.10;;;6.40;1.00;;;;;;5071614;28;20182;-68
2021/03/01 10:49:43;;;;;;;10.40;8.90;;;6.30;1.00;;;;;;5057700;28;20184;-65
2021/03/01 10:52:09;;;;;;;11.13;9.43;;;6.20;1.00;;;;;;5053724;28;20280;-65
2021/03/01 10:54:36;;;;;;;11.93;9.10;;;6.20;1.00;;;;;;5068256;28;20193;-65
2021/03/01 10:57:03;;;;;;;12.13;8.55;;;6.10;1.00;;;;;;5070304;28;20195;-64
2021/03/01 10:59:28;;;;;;;11.73;8.77;;;6.20;1.00;;;;;;5071334;28;20187;-64
2021/03/01 11:01:54;;;;;;;14.33;8.77;;;6.20;1.00;;;;;;5071373;28;20722;-64
2021/03/01 11:04:20;;;;;;;12.33;8.73;;;6.20;1.00;;;;;;5066833;28;20188;-66
2021/03/01 11:06:47;;;;;;;11.75;8.00;;;6.20;1.00;;;;;;5067216;28;20204;-65
2021/03/01 11:09:13;;;;;;;13.25;9.73;;;6.40;1.00;;;;;;5062631;28;20684;-66
2021/03/01 11:11:39;;;;;;;10.90;8.65;;;6.50;1.00;;;;;;5052661;28;20189;-65
2021/03/01 11:14:06;;;;;;;9.95;8.05;;;6.70;1.00;;;;;;5052172;28;20254;-65
2021/03/01 11:16:31;;;;;;;11.35;8.95;;;6.80;1.00;;;;;;5052241;28;20357;-66
2021/03/01 11:18:57;;;;;;;12.10;8.83;;;7.00;1.00;;;;;;5048353;28;20192;-65
2021/03/01 11:21:23;;;;;;;10.20;8.60;;;7.00;1.00;;;;;;5059316;28;20225;-65
2021/03/01 11:23:48;;;;;;;11.40;8.50;;;7.00;1.00;;;;;;5057599;28;20191;-66
2021/03/01 11:26:14;;;;;;;10.20;8.60;;;7.20;1.00;;;;;;5060822;28;20189;-67
2021/03/01 11:28:41;;;;;;;10.73;8.60;;;7.30;1.00;;;;;;5061028;28;20241;-67
2021/03/01 11:31:06;;;;;;;10.87;8.50;;;7.40;1.00;;;;;;5065591;28;20516;-65
2021/03/01 11:33:32;;;;;;;11.70;9.13;;;7.50;1.00;;;;;;5069835;28;20487;-66
2021/03/01 11:35:57;;;;;;;11.23;8.67;;;7.50;1.00;;;;;;5061261;28;20200;-66
2021/03/01 11:38:27;;;;;;;9.50;8.10;;;7.60;1.00;;;;;;5070288;28;20262;-66
2021/03/01 11:40:53;;;;;;;9.70;8.10;;;7.50;1.00;;;;;;5070753;28;20184;-66
2021/03/01 11:43:19;;;;;;;9.35;8.25;;;7.80;1.00;;;;;;5070842;28;20508;-65
2021/03/01 11:45:45;;;;;;;9.93;8.80;;;7.90;1.00;;;;;;5070788;28;20238;-66
2021/03/01 11:48:13;;;;;;;10.37;8.30;;;8.00;1.00;;;;;;5070657;28;20438;-66
2021/03/01 11:50:42;;;;;;;11.13;8.83;;;8.00;1.00;;;;;;5070315;28;20437;-66
2021/03/01 11:53:08;;;;;;;11.37;8.87;;;8.10;1.00;;;;;;5064367;28;20922;-66
2021/03/01 11:55:34;;;;;;;9.33;8.33;;;8.30;1.00;;;;;;5057236;28;20561;-65
2021/03/01 11:58:00;;;;;;;11.27;9.33;;;8.30;1.00;;;;;;5054838;28;20434;-64
2021/03/01 12:00:26;;;;;;;11.77;8.67;;;8.10;1.00;;;;;;5054126;28;20561;-67
2021/03/01 12:02:51;;;;;;;11.03;8.17;;;8.20;1.00;;;;;;5052264;28;20184;-65
2021/03/01 12:05:17;;;;;;;10.23;8.90;;;8.20;1.00;;;;;;5049562;28;20185;-65
2021/03/01 12:07:44;;;;;;;10.53;9.30;;;8.30;1.00;;;;;;5055506;28;20674;-65
2021/03/01 12:10:10;;;;;;;10.53;9.30;;;8.80;1.00;;;;;;5053222;28;20192;-65
2021/03/01 12:12:36;;;;;;;11.40;9.03;;;9.00;1.00;;;;;;5055403;28;20416;-65
2021/03/01 12:15:02;;;;;;;11.70;9.43;;;9.00;99.90;;;;;;5054586;28;20472;-64
2021/03/01 12:17:28;;;;;;;10.43;9.33;;;9.30;1.00;;;;;;5051882;28;20200;-65
2021/03/01 12:19:53;;;;;;;10.13;8.37;;;10.10;99.90;;;;;;5053945;28;20420;-64
2021/03/01 12:22:19;;;;;;;9.63;8.70;;;10.60;1.00;;;;;;5048593;28;20197;-65
2021/03/01 12:24:44;;;;;;;10.33;8.87;;;11.10;99.90;;;;;;5053566;28;20193;-66
2021/03/01 12:27:10;;;;;;;9.70;8.80;;;11.50;1.00;;;;;;5050944;28;20224;-65
2021/03/01 12:29:36;;;;;;;11.23;9.53;;;11.40;1.00;;;;;;5034631;28;20197;-65
2021/03/01 12:32:01;;;;;;;10.33;9.30;;;11.30;99.90;;;;;;5054004;28;20193;-66
2021/03/01 12:34:27;;;;;;;9.83;8.83;;;11.40;1.00;;;;;;5033363;28;20214;-63
2021/03/01 12:36:52;;;;;;;11.90;9.77;;;11.50;1.00;;;;;;5068030;28;20211;-64
2021/03/01 12:39:18;;;;;;;10.47;8.83;;;12.00;99.90;;;;;;5068859;28;20313;-65
2021/03/01 12:41:43;;;;;;;11.37;10.10;;;12.70;1.00;;;;;;5068981;28;20683;-64
2021/03/01 12:44:09;;;;;;;11.37;10.27;;;13.20;1.00;;;;;;5069393;28;20203;-63
2021/03/01 12:46:35;;;;;;;10.07;9.20;;;13.80;1.00;;;;;;5068948;28;20300;-67
2021/03/01 12:49:01;;;;;;;11.97;10.77;;;14.40;99.90;;;;;;5061575;28;20499;-65
2021/03/01 12:51:27;;;;;;;10.50;9.40;;;14.20;99.90;;;;;;5063572;28;20441;-65
2021/03/01 12:53:52;;;;;;;11.20;10.10;;;14.40;99.90;;;;;;5064510;28;20485;-66
2021/03/01 12:56:18;;;;;;;11.10;10.10;;;14.20;1.00;;;;;;5068639;28;20710;-65